Kalamazoo, MI (49007)

3:19 AM EST on January 21, 2018 (GMT -0500)
Kalamazoo Township | | Change Station
Active Advisory: Flood Watch Active Notice: Flood Watch

Elev 797 ft 42.32 °N, 85.57 °W | Updated 11 seconds ago

Overcast
Overcast
36.3 °F
Feels Like 36 °F
N
0.0
Wind Variable Wind from SSW
Gusts 0.0 mph

Today
High -- | Low -- °F
--% Chance of Precip.
Yesterday
High -- | Low -- °F
Precip. -- in
Pressure 30.03 in
Visibility 2.5 miles
Clouds Few 900 ft
Overcast 2200 ft
Windchill 36 °F
Dew Point 35 °F
Humidity 96%
Rainfall 0.00 in
Snow Depth Not available.
8:05 AM 5:42 PM
Waxing Crescent, 16% visible
SPECI KAZO 210809Z AUTO 16004KT 2 1/2SM BR FEW009 OVC022 03/02 A3003 RMK AO2 T00280017
Pressure 30.03 in
Visibility 2.5 miles
Clouds Few 900 ft
Overcast 2200 ft
Windchill 36 °F
Dew Point 35 °F
Humidity 96%
Rainfall 0.00 in
Snow Depth Not available.
8:05 AM 5:42 PM
Waxing Crescent, 16% visible
SPECI KAZO 210809Z AUTO 16004KT 2 1/2SM BR FEW009 OVC022 03/02 A3003 RMK AO2 T00280017

Get Your Daily Forecast Email!

Thanks for signing up!

Be on the lookout for a verification email in your inbox.

You'll start receiving severe weather alerts in your inbox..

×

10-Day Weather Forecast

Almanac

Astronomy

Jan. 21, 2018 Rise Set
Actual Time
Civil Twilight
Nautical Twilight
Astronomical Twilight
Moon
Length of Visible Light
Length of Day
Tomorrow will be .
, % of the Moon is Illuminated

Today's Extremes

State Highs State Lows

Community

WunderPhotos

Category 6

Welcome to Category 6. This is the collective home for Weather Underground's featured writeups by Dr. Jeff Masters (right), Bob Henson (left), Chris Burt, and other regular contributors.

Nearby

Air Quality

  Air Quality AQ Index Pollutant
Not available.

Snow Depth

Station Depth Elevation

Earthquake Activity

City Distance Mag. Time & Date
Minimum magnitude displayed is 2.5.

Coastal Water Temperatures

Place Temperature

Stations

Nearby Weather Stations

Station Location Temp. Windchill Dew Point Humidity Wind Precip. Elev Updated Type
                   

Watches & Warnings

Flood Watch
Issued: 8:45 PM EST Jan. 20, 2018 – National Weather Service

The National Weather Service in Grand Rapids has issued a
* Flood Watch for
the Portage River near Vicksburg
* from Monday evening to Thursday afternoon.
* Minor flooding is possible.
* Bankfull stage is 5.0 feet.
* Flood stage is 5.0 feet.
* Forecast, flood stage may be reached by Monday evening. The river
is forecast to reach a maximum stage of 5.3 feet by Tuesday
morning.
* Impact, at 5.0 feet... expect overflows into wooded areas and
farmland adjacent to the river.


Lat... Lon 4208 8552 4211 8553 4215 8548 4216 8544
      4211 8544 4208 8547


63